Tsogt-Ovoo, Mongolia
Current Conditions -  °F | °C
As of 6:00 PM on Thursday 23 Oct 2014 (Local Time) from ZMUB Reporting Station
Scattered Clouds Scattered Clouds  
Wind Chill: 42°   Ceiling: Unl
Heat Index: 46°   Visibility: 6mi
Dew Point: 25°   Wind: 9mph
Humidity: 43%   Direction: 300°WNW
Pressure: 29.77"   Gusts: NA
Location:  44.42°N, 105.32°E
Report Text: ZMUB 231000Z 30004MPS 9999 SCT033 SCT100 08/M04 Q1008 NOSIG RMK QFE649.6 41 MOP
Loading
Personal Weather Stations






























Interactive Weather Map
Tropical Storm Tracking
New forecast layout! Learn more

10-Day Weather Forecast

Advertisements
Track Severe Weather on mobile